Time;durP1;ratioP1;P1;durP2;ratioP2;P2;SDS_P1;SDS_P2;PMS_P1;PMS_P2;Temp;Humidity;BMP_temperature;BMP_pressure;BME280_temperature;BME280_humidity;BME280_pressure;Samples;Min_cycle;Max_cycle;Signal;HPM_P1;HPM_P2
2023/12/16 00:01:26;;;;;;;7.25;4.85;;;22.80;42.30;;;;;;6176669;28;81159;-73
2023/12/16 00:04:27;;;;;;;9.18;5.32;;;22.70;42.20;;;;;;6166826;28;80851;-70
2023/12/16 00:07:27;;;;;;;8.07;5.15;;;22.70;42.60;;;;;;6153491;28;80545;-72
2023/12/16 00:10:28;;;;;;;10.77;5.80;;;22.70;42.70;;;;;;6153416;28;81755;-71
2023/12/16 00:13:28;;;;;;;7.72;5.53;;;22.70;43.00;;;;;;6169663;28;85704;-68
2023/12/16 00:16:29;;;;;;;6.68;4.55;;;22.70;43.10;;;;;;6164631;28;80529;-72
2023/12/16 00:19:29;;;;;;;10.85;6.30;;;22.70;43.20;;;;;;6176027;28;81743;-74
2023/12/16 00:22:30;;;;;;;6.82;4.72;;;22.70;42.80;;;;;;6165551;28;81580;-75
2023/12/16 00:25:30;;;;;;;8.27;5.35;;;22.70;43.20;;;;;;6155600;28;80481;-75
2023/12/16 00:28:31;;;;;;;8.40;5.00;;;22.70;42.80;;;;;;6153560;28;80429;-75
2023/12/16 00:31:31;;;;;;;8.63;5.35;;;22.70;42.70;;;;;;6153305;28;80869;-77
2023/12/16 00:34:33;;;;;;;8.27;5.47;;;22.70;42.10;;;;;;6161689;28;81061;-76
2023/12/16 00:37:33;;;;;;;9.25;5.55;;;22.70;42.00;;;;;;6162010;28;80817;-73
2023/12/16 00:40:34;;;;;;;10.25;5.20;;;22.70;42.30;;;;;;6153370;28;80220;-71
2023/12/16 00:43:34;;;;;;;8.95;5.35;;;22.80;41.80;;;;;;6160500;28;80540;-70
2023/12/16 00:46:35;;;;;;;10.13;5.50;;;22.80;41.90;;;;;;6164484;28;81266;-71
2023/12/16 00:49:35;;;;;;;7.20;5.38;;;22.70;41.90;;;;;;6176762;28;81380;-70
2023/12/16 00:52:36;;;;;;;8.23;5.20;;;22.70;41.90;;;;;;6174956;28;80925;-68
2023/12/16 00:55:38;;;;;;;8.85;5.65;;;22.70;41.70;;;;;;6175791;28;81872;-68
2023/12/16 00:58:39;;;;;;;8.07;5.70;;;22.70;41.80;;;;;;6178809;28;81411;-68
2023/12/16 01:01:39;;;;;;;10.15;6.13;;;22.70;41.40;;;;;;6177419;28;80448;-68
2023/12/16 01:04:40;;;;;;;12.30;6.68;;;22.70;42.00;;;;;;6164438;28;81458;-68
2023/12/16 01:07:40;;;;;;;10.05;5.78;;;22.70;42.50;;;;;;6154283;28;80495;-66
2023/12/16 01:10:41;;;;;;;8.85;5.20;;;22.70;42.60;;;;;;6152678;28;81036;-62
2023/12/16 01:13:41;;;;;;;10.25;6.32;;;22.70;42.70;;;;;;6154274;28;80367;-62
2023/12/16 01:16:42;;;;;;;9.38;6.13;;;22.70;42.60;;;;;;6156068;28;80868;-61
2023/12/16 01:19:42;;;;;;;11.05;5.78;;;22.60;42.50;;;;;;6151868;28;80837;-61
2023/12/16 01:22:43;;;;;;;9.20;5.53;;;22.60;42.70;;;;;;6152715;28;81776;-60
2023/12/16 01:25:43;;;;;;;10.40;5.68;;;22.60;42.80;;;;;;6153326;28;80223;-60
2023/12/16 01:28:44;;;;;;;13.43;5.88;;;22.60;42.90;;;;;;6153361;28;81494;-67
2023/12/16 01:31:44;;;;;;;10.48;5.47;;;22.60;42.70;;;;;;6155662;28;81128;-73
2023/12/16 01:34:45;;;;;;;10.25;5.50;;;22.60;42.90;;;;;;6152322;28;81203;-73
2023/12/16 01:37:45;;;;;;;9.43;5.22;;;22.60;43.50;;;;;;6152453;28;80122;-69
2023/12/16 01:40:46;;;;;;;7.90;5.13;;;22.60;43.10;;;;;;6166632;28;81067;-69
2023/12/16 01:43:46;;;;;;;7.13;4.38;;;22.60;43.60;;;;;;6175863;28;81231;-70
2023/12/16 01:46:47;;;;;;;10.55;5.10;;;22.60;44.30;;;;;;6175396;28;81057;-70
2023/12/16 01:49:47;;;;;;;8.00;5.03;;;22.60;43.70;;;;;;6173982;28;80264;-70
2023/12/16 01:52:48;;;;;;;8.38;5.35;;;22.60;43.90;;;;;;6174861;28;80820;-70
2023/12/16 01:55:48;;;;;;;7.82;5.03;;;22.60;43.80;;;;;;6174189;28;80370;-70
2023/12/16 01:58:49;;;;;;;9.30;6.20;;;22.60;44.10;;;;;;6175442;28;80872;-71
2023/12/16 02:01:49;;;;;;;9.45;5.22;;;22.60;43.30;;;;;;6176536;28;83447;-71
2023/12/16 02:04:50;;;;;;;8.20;5.57;;;22.60;43.10;;;;;;6179582;28;80618;-69
2023/12/16 02:07:50;;;;;;;10.50;5.80;;;22.60;42.90;;;;;;6166908;28;80565;-71
2023/12/16 02:10:51;;;;;;;9.55;6.30;;;22.60;42.50;;;;;;6179313;28;81859;-71
2023/12/16 02:13:51;;;;;;;11.25;6.13;;;22.60;42.30;;;;;;6178306;28;80401;-68
2023/12/16 02:16:52;;;;;;;10.73;6.28;;;22.60;42.90;;;;;;6179094;28;81008;-67
2023/12/16 02:19:52;;;;;;;8.80;5.57;;;22.60;42.90;;;;;;6163488;28;82066;-68
2023/12/16 02:22:53;;;;;;;9.27;6.05;;;22.60;42.60;;;;;;6155802;28;80197;-68
2023/12/16 02:25:53;;;;;;;8.30;5.75;;;22.60;42.90;;;;;;6169945;28;80830;-70
2023/12/16 02:28:54;;;;;;;11.15;6.55;;;22.60;42.90;;;;;;6171697;28;80144;-68
2023/12/16 02:31:54;;;;;;;7.88;4.90;;;22.60;43.00;;;;;;6157789;28;83370;-65
2023/12/16 02:34:55;;;;;;;10.43;6.40;;;22.60;44.80;;;;;;6155917;28;81209;-65
2023/12/16 02:37:55;;;;;;;10.15;5.75;;;22.60;43.60;;;;;;6159264;28;80729;-65
2023/12/16 02:40:56;;;;;;;9.55;6.05;;;22.60;44.10;;;;;;6154341;28;80580;-69
2023/12/16 02:43:57;;;;;;;10.30;5.63;;;22.60;44.30;;;;;;6159247;28;82070;-59
2023/12/16 02:46:57;;;;;;;11.73;6.85;;;22.60;43.50;;;;;;6164797;28;80606;-62
2023/12/16 02:49:58;;;;;;;12.38;7.07;;;22.60;42.70;;;;;;6157505;28;81395;-59
2023/12/16 02:52:59;;;;;;;11.00;6.72;;;22.60;42.90;;;;;;6155247;28;81649;-60
2023/12/16 02:56:00;;;;;;;11.85;6.70;;;22.60;43.80;;;;;;6154650;28;80848;-59
2023/12/16 02:59:00;;;;;;;11.68;6.70;;;22.60;43.60;;;;;;6161752;28;80243;-59
2023/12/16 03:02:01;;;;;;;10.23;6.25;;;22.50;43.50;;;;;;6170441;28;80742;-68
2023/12/16 03:05:01;;;;;;;13.82;6.50;;;22.60;44.30;;;;;;6177510;28;80455;-68
2023/12/16 03:08:02;;;;;;;11.88;7.07;;;22.50;44.70;;;;;;6154809;28;80401;-68
2023/12/16 03:11:03;;;;;;;10.98;7.38;;;22.60;43.50;;;;;;6154777;28;80847;-67
2023/12/16 03:14:03;;;;;;;10.45;6.95;;;22.50;43.30;;;;;;6155986;28;80570;-67
2023/12/16 03:17:04;;;;;;;12.25;8.13;;;22.50;44.00;;;;;;6154568;28;80529;-65
2023/12/16 03:20:05;;;;;;;12.00;6.78;;;22.60;43.40;;;;;;6155110;28;80440;-65
2023/12/16 03:23:06;;;;;;;11.98;7.32;;;22.60;43.80;;;;;;6159126;28;80675;-66
2023/12/16 03:26:06;;;;;;;14.65;7.85;;;22.50;43.20;;;;;;6178667;28;81013;-65
2023/12/16 03:29:07;;;;;;;10.65;6.55;;;22.50;43.70;;;;;;6178986;28;81396;-67
2023/12/16 03:32:07;;;;;;;11.90;6.57;;;22.60;43.90;;;;;;6167431;28;80628;-67
2023/12/16 03:35:08;;;;;;;12.30;7.45;;;22.60;43.90;;;;;;6179346;28;82680;-68
2023/12/16 03:38:08;;;;;;;13.18;7.65;;;22.60;43.60;;;;;;6179673;28;80682;-68
2023/12/16 03:41:09;;;;;;;13.18;7.38;;;22.60;43.40;;;;;;6164636;28;88432;-68
2023/12/16 03:44:09;;;;;;;12.70;7.85;;;22.60;42.90;;;;;;6177192;28;80472;-67
2023/12/16 03:47:10;;;;;;;11.35;6.55;;;22.60;42.50;;;;;;6173818;28;81259;-68
2023/12/16 03:50:10;;;;;;;12.57;7.72;;;22.60;42.90;;;;;;6169661;28;81601;-67
2023/12/16 03:53:11;;;;;;;10.57;7.00;;;22.60;42.40;;;;;;6177016;28;84375;-71
2023/12/16 03:56:11;;;;;;;10.73;6.60;;;22.60;43.40;;;;;;6177230;28;80306;-72
2023/12/16 03:59:12;;;;;;;12.70;7.38;;;22.60;43.30;;;;;;6175055;28;82601;-72
2023/12/16 04:02:12;;;;;;;9.80;6.05;;;22.60;42.60;;;;;;6170610;28;80776;-71
2023/12/16 04:05:13;;;;;;;10.18;6.03;;;22.60;43.60;;;;;;6175003;28;80904;-66
2023/12/16 04:08:13;;;;;;;10.77;5.90;;;22.60;44.00;;;;;;6169280;28;80258;-67
2023/12/16 04:11:14;;;;;;;11.70;6.93;;;22.60;43.60;;;;;;6178786;28;81342;-67
2023/12/16 04:14:14;;;;;;;10.38;6.13;;;22.60;43.30;;;;;;6176983;28;80442;-64
2023/12/16 04:17:15;;;;;;;9.32;5.65;;;22.60;43.20;;;;;;6175993;28;81562;-63
2023/12/16 04:20:15;;;;;;;10.65;6.20;;;22.60;42.90;;;;;;6173888;28;80831;-62
2023/12/16 04:23:16;;;;;;;10.38;6.38;;;22.60;42.60;;;;;;6168696;28;80647;-61
2023/12/16 04:26:17;;;;;;;9.60;6.10;;;22.70;42.60;;;;;;6163463;28;83778;-61
2023/12/16 04:29:17;;;;;;;10.48;6.47;;;22.70;42.30;;;;;;6158159;28;82581;-64
2023/12/16 04:32:18;;;;;;;8.68;5.97;;;22.70;42.50;;;;;;6168191;28;81519;-63
2023/12/16 04:35:18;;;;;;;11.85;6.45;;;22.70;42.50;;;;;;6162653;28;81434;-63
2023/12/16 04:38:19;;;;;;;10.35;6.05;;;22.80;42.70;;;;;;6163043;28;81339;-62
2023/12/16 04:41:19;;;;;;;10.00;5.65;;;22.80;42.60;;;;;;6162432;28;82235;-62
2023/12/16 04:44:20;;;;;;;11.13;6.57;;;22.80;42.60;;;;;;6162939;28;80821;-61
2023/12/16 04:47:20;;;;;;;10.00;5.72;;;22.80;42.40;;;;;;6159464;28;81008;-61
2023/12/16 04:50:21;;;;;;;11.13;6.72;;;22.80;42.40;;;;;;6167655;28;83476;-60
2023/12/16 04:53:21;;;;;;;8.52;5.07;;;22.80;42.40;;;;;;6168825;28;80936;-60
2023/12/16 04:56:22;;;;;;;8.32;5.57;;;22.90;42.70;;;;;;6160692;28;80619;-61
2023/12/16 04:59:22;;;;;;;8.73;5.63;;;22.90;42.80;;;;;;6160850;28;80871;-61
2023/12/16 05:02:23;;;;;;;7.32;5.22;;;22.90;42.70;;;;;;6164685;28;81012;-61
2023/12/16 05:05:23;;;;;;;7.43;5.45;;;22.90;42.70;;;;;;6152500;28;80771;-61
2023/12/16 05:08:23;;;;;;;9.77;5.75;;;23.00;42.90;;;;;;6154590;28;80741;-62
2023/12/16 05:11:24;;;;;;;7.80;4.70;;;23.00;42.90;;;;;;6176645;28;80921;-61
2023/12/16 05:14:24;;;;;;;9.45;5.28;;;23.00;43.10;;;;;;6176644;28;80455;-62
2023/12/16 05:17:25;;;;;;;7.47;4.88;;;23.00;43.00;;;;;;6176274;28;80664;-62
2023/12/16 05:20:25;;;;;;;8.50;4.85;;;23.00;42.90;;;;;;6175406;28;81191;-61
2023/12/16 05:23:26;;;;;;;7.78;4.53;;;23.00;43.00;;;;;;6175023;28;80771;-62
2023/12/16 05:26:26;;;;;;;5.05;3.85;;;23.00;43.10;;;;;;6174506;28;81346;-61
2023/12/16 05:29:27;;;;;;;10.90;4.72;;;23.00;43.10;;;;;;6173484;28;81082;-72
2023/12/16 05:32:27;;;;;;;7.82;4.72;;;23.00;43.10;;;;;;6164589;28;81014;-67
2023/12/16 05:35:28;;;;;;;7.53;4.65;;;23.00;43.20;;;;;;6177234;28;80437;-72
2023/12/16 05:38:28;;;;;;;7.07;4.47;;;23.10;43.10;;;;;;6176065;28;80531;-66
2023/12/16 05:41:29;;;;;;;8.25;4.85;;;23.00;43.20;;;;;;6176017;28;80184;-61
2023/12/16 05:44:29;;;;;;;6.15;4.07;;;23.00;43.50;;;;;;6178140;28;81296;-67
2023/12/16 05:47:30;;;;;;;7.05;4.28;;;23.10;43.60;;;;;;6178090;28;80605;-59
2023/12/16 05:50:30;;;;;;;7.50;3.90;;;23.00;43.20;;;;;;6176312;28;80765;-60
2023/12/16 05:53:31;;;;;;;6.75;3.80;;;23.00;43.40;;;;;;6178477;28;81238;-60
2023/12/16 05:56:31;;;;;;;6.70;3.90;;;23.00;43.20;;;;;;6170984;28;80611;-60
2023/12/16 05:59:34;;;;;;;7.63;4.43;;;23.00;43.30;;;;;;6176109;28;80394;-61
2023/12/16 06:02:35;;;;;;;7.88;3.63;;;23.10;43.60;;;;;;6173998;28;80783;-59
2023/12/16 06:05:35;;;;;;;7.50;3.75;;;23.10;43.90;;;;;;6177671;28;80551;-59
2023/12/16 06:08:36;;;;;;;7.38;4.38;;;23.10;44.30;;;;;;6156552;28;81979;-60
2023/12/16 06:11:36;;;;;;;7.88;4.10;;;23.10;43.70;;;;;;6156238;28;81140;-60
2023/12/16 06:14:36;;;;;;;5.57;3.40;;;23.10;43.20;;;;;;6164275;28;81944;-60
2023/12/16 06:17:37;;;;;;;6.53;3.75;;;23.10;43.50;;;;;;6161798;28;80531;-59
2023/12/16 06:20:38;;;;;;;5.00;3.58;;;23.00;43.80;;;;;;6169194;28;80485;-61
2023/12/16 06:23:38;;;;;;;6.22;3.78;;;23.00;43.80;;;;;;6173867;28;81472;-63
2023/12/16 06:26:39;;;;;;;5.63;3.75;;;23.00;43.90;;;;;;6173814;28;81366;-64
2023/12/16 06:29:39;;;;;;;6.57;3.55;;;23.00;43.60;;;;;;6173508;28;82022;-64
2023/12/16 06:32:40;;;;;;;6.95;3.63;;;23.00;43.90;;;;;;6168371;28;80546;-64
2023/12/16 06:35:40;;;;;;;4.43;3.20;;;23.00;43.70;;;;;;6175437;28;84385;-66
2023/12/16 06:38:41;;;;;;;3.92;2.80;;;23.00;44.20;;;;;;6172361;28;80893;-65
2023/12/16 06:41:41;;;;;;;5.03;2.92;;;23.00;45.00;;;;;;6169084;28;81422;-68
2023/12/16 06:44:42;;;;;;;5.10;2.80;;;23.00;45.10;;;;;;6172092;28;80694;-64
2023/12/16 06:47:43;;;;;;;5.13;3.28;;;23.00;45.00;;;;;;6171453;28;80828;-63
2023/12/16 06:50:43;;;;;;;4.88;3.10;;;23.00;44.50;;;;;;6159966;28;87999;-66
2023/12/16 06:53:43;;;;;;;13.07;4.68;;;22.90;45.00;;;;;;6164554;28;81336;-65
2023/12/16 06:56:44;;;;;;;5.40;3.58;;;22.90;45.10;;;;;;6173244;28;80729;-61
2023/12/16 06:59:44;;;;;;;9.00;5.07;;;22.90;45.00;;;;;;6175663;28;80438;-67
2023/12/16 07:02:45;;;;;;;9.23;5.45;;;23.00;46.00;;;;;;6172720;28;80475;-65
2023/12/16 07:05:45;;;;;;;10.15;6.55;;;23.00;45.70;;;;;;6171809;28;80512;-66
2023/12/16 07:08:46;;;;;;;18.05;9.60;;;23.00;45.90;;;;;;6172461;28;81297;-65
2023/12/16 07:11:46;;;;;;;11.15;6.82;;;23.00;46.50;;;;;;6164788;28;81153;-64
2023/12/16 07:14:47;;;;;;;13.15;6.45;;;23.00;46.20;;;;;;6174998;28;80300;-63
2023/12/16 07:17:47;;;;;;;19.45;9.20;;;23.00;46.00;;;;;;6173712;28;80591;-66
2023/12/16 07:20:48;;;;;;;15.18;8.20;;;23.00;46.30;;;;;;6176025;28;81018;-61
2023/12/16 07:23:49;;;;;;;10.75;7.55;;;23.00;46.50;;;;;;6164896;28;80922;-61
2023/12/16 07:26:49;;;;;;;13.93;8.20;;;23.00;46.50;;;;;;6175949;28;80724;-59
2023/12/16 07:29:52;;;;;;;17.42;8.00;;;23.00;46.70;;;;;;6174968;28;81351;-59
2023/12/16 07:32:52;;;;;;;12.57;6.13;;;23.00;46.70;;;;;;6167716;28;81070;-59
2023/12/16 07:35:53;;;;;;;10.68;6.32;;;23.00;46.50;;;;;;6174405;28;81133;-59
2023/12/16 07:38:55;;;;;;;11.20;6.75;;;23.00;46.00;;;;;;6167228;28;81369;-59
2023/12/16 07:41:56;;;;;;;9.32;6.43;;;23.00;46.40;;;;;;6165417;28;81577;-59
2023/12/16 07:44:56;;;;;;;9.05;5.55;;;23.00;46.00;;;;;;6176738;28;80447;-64
2023/12/16 07:47:57;;;;;;;9.60;5.32;;;23.00;45.40;;;;;;6167430;28;80886;-60
2023/12/16 07:50:57;;;;;;;8.52;4.45;;;23.00;45.60;;;;;;6174188;28;82056;-58
2023/12/16 07:53:58;;;;;;;7.90;4.70;;;23.00;45.50;;;;;;6171716;28;80911;-60
2023/12/16 07:56:58;;;;;;;6.85;4.07;;;23.00;45.60;;;;;;6170456;28;80785;-59
2023/12/16 07:59:59;;;;;;;9.85;4.60;;;23.00;45.50;;;;;;6163050;28;80514;-61
2023/12/16 08:02:59;;;;;;;6.10;3.42;;;23.00;45.40;;;;;;6163748;28;80677;-61
2023/12/16 08:06:00;;;;;;;7.10;4.40;;;23.00;45.30;;;;;;6171575;28;81163;-60
2023/12/16 08:09:00;;;;;;;7.97;4.13;;;23.00;45.70;;;;;;6173632;28;80999;-60
2023/12/16 08:12:01;;;;;;;6.20;3.72;;;23.00;45.70;;;;;;6167211;28;82214;-58
2023/12/16 08:15:04;;;;;;;6.65;3.63;;;23.00;45.20;;;;;;6173512;28;80631;-58
2023/12/16 08:18:07;;;;;;;9.05;3.38;;;23.00;45.00;;;;;;6176315;28;82061;-59
2023/12/16 08:21:07;;;;;;;7.18;4.18;;;23.00;45.40;;;;;;6171905;28;84220;-60
2023/12/16 08:24:08;;;;;;;5.88;3.20;;;23.00;45.00;;;;;;6175247;28;80715;-61
2023/12/16 08:27:08;;;;;;;5.95;3.45;;;23.00;44.80;;;;;;6177040;28;81024;-66
2023/12/16 08:30:09;;;;;;;6.63;3.17;;;23.00;44.50;;;;;;6167558;28;82618;-66
2023/12/16 08:33:09;;;;;;;6.05;3.60;;;22.90;44.60;;;;;;6176958;28;80875;-67
2023/12/16 08:36:10;;;;;;;5.47;3.10;;;22.90;44.50;;;;;;6176243;28;80555;-58
2023/12/16 08:39:11;;;;;;;8.00;3.47;;;22.90;45.00;;;;;;6175183;28;80513;-61
2023/12/16 08:42:11;;;;;;;8.13;3.17;;;22.90;44.70;;;;;;6175917;28;81570;-59
2023/12/16 08:45:12;;;;;;;5.47;3.45;;;23.00;45.00;;;;;;6170290;28;80716;-60
2023/12/16 08:48:12;;;;;;;4.78;2.92;;;23.00;44.60;;;;;;6173911;28;80663;-60
2023/12/16 08:51:13;;;;;;;6.00;3.58;;;23.00;44.80;;;;;;6170722;28;82552;-67
2023/12/16 08:54:13;;;;;;;5.43;2.60;;;23.00;44.70;;;;;;6165964;28;83300;-64
2023/12/16 08:57:14;;;;;;;7.63;3.55;;;23.00;44.70;;;;;;6171373;28;81606;-60
2023/12/16 09:00:14;;;;;;;5.43;2.60;;;23.10;44.80;;;;;;6161437;28;80758;-62
2023/12/16 09:03:15;;;;;;;7.47;3.03;;;23.10;44.60;;;;;;6168072;28;80868;-64
2023/12/16 09:06:15;;;;;;;11.00;3.55;;;23.10;44.70;;;;;;6172586;28;80519;-66
2023/12/16 09:09:16;;;;;;;11.65;3.97;;;23.20;44.90;;;;;;6172772;28;82682;-66
2023/12/16 09:12:16;;;;;;;8.82;3.17;;;23.20;44.60;;;;;;6172933;28;83190;-68
2023/12/16 09:15:17;;;;;;;5.40;3.13;;;23.20;44.60;;;;;;6174127;28;81238;-68
2023/12/16 09:18:18;;;;;;;6.47;2.95;;;23.20;44.90;;;;;;6172347;28;82788;-65
2023/12/16 09:21:18;;;;;;;6.47;2.92;;;23.30;44.80;;;;;;6171902;28;87670;-65
2023/12/16 09:24:19;;;;;;;5.60;2.70;;;23.30;44.80;;;;;;6172818;28;80887;-65
2023/12/16 09:27:20;;;;;;;7.80;2.78;;;23.30;44.70;;;;;;6174260;28;80853;-68
2023/12/16 09:30:22;;;;;;;5.07;3.10;;;23.30;44.70;;;;;;6165599;28;81273;-62
2023/12/16 09:33:22;;;;;;;8.13;2.85;;;23.30;44.60;;;;;;6176287;28;80539;-63
2023/12/16 09:36:26;;;;;;;5.78;2.58;;;23.30;44.50;;;;;;6175582;28;81126;-63
2023/12/16 09:39:27;;;;;;;4.57;2.75;;;23.40;44.30;;;;;;6175757;28;83377;-64
2023/12/16 09:42:27;;;;;;;5.68;3.00;;;23.40;44.00;;;;;;6176250;28;80933;-66
2023/12/16 09:45:28;;;;;;;5.38;2.70;;;23.40;43.80;;;;;;6172650;28;80291;-66
2023/12/16 09:48:28;;;;;;;5.50;3.42;;;23.40;43.60;;;;;;6174247;28;81584;-65
2023/12/16 09:51:30;;;;;;;9.40;3.28;;;23.40;43.40;;;;;;6175628;28;80409;-64
2023/12/16 09:54:30;;;;;;;6.60;3.15;;;23.40;43.10;;;;;;6176101;28;80476;-61
2023/12/16 09:57:34;;;;;;;4.43;2.80;;;23.30;42.90;;;;;;6175734;28;80711;-63
2023/12/16 10:00:34;;;;;;;7.13;3.92;;;23.30;42.70;;;;;;6175416;28;80942;-63
2023/12/16 10:03:35;;;;;;;8.82;4.80;;;23.30;42.80;;;;;;6175833;28;81067;-64
2023/12/16 10:06:35;;;;;;;8.25;4.13;;;23.20;43.00;;;;;;6172510;28;80524;-64
2023/12/16 10:09:36;;;;;;;6.32;3.78;;;23.20;42.60;;;;;;6174899;28;82179;-60
2023/12/16 10:12:36;;;;;;;8.10;4.25;;;23.20;42.60;;;;;;6167235;28;82160;-67
2023/12/16 10:15:37;;;;;;;6.35;4.03;;;23.20;42.30;;;;;;6175854;28;80432;-67
2023/12/16 10:18:37;;;;;;;5.93;3.83;;;23.10;42.30;;;;;;6173526;28;81187;-62
2023/12/16 10:21:39;;;;;;;8.68;5.10;;;23.10;42.00;;;;;;6168232;28;80870;-60
2023/12/16 10:24:41;;;;;;;10.00;5.15;;;23.10;42.20;;;;;;6175257;28;80426;-60
2023/12/16 10:27:41;;;;;;;11.40;5.10;;;23.10;42.60;;;;;;6178419;28;80922;-60
2023/12/16 10:30:42;;;;;;;8.80;4.50;;;23.10;42.90;;;;;;6164015;28;81830;-60
2023/12/16 10:33:42;;;;;;;9.68;5.13;;;23.10;43.40;;;;;;6179411;28;80775;-58
2023/12/16 10:36:43;;;;;;;8.30;4.90;;;23.10;42.90;;;;;;6171766;28;80812;-60
2023/12/16 10:39:43;;;;;;;9.75;5.57;;;23.10;43.20;;;;;;6175644;28;80932;-60
2023/12/16 10:42:44;;;;;;;12.75;5.85;;;23.10;43.40;;;;;;6180144;28;80826;-59
2023/12/16 10:45:46;;;;;;;8.48;5.75;;;23.10;43.40;;;;;;6179612;28;80667;-60
2023/12/16 10:48:47;;;;;;;7.70;5.05;;;23.10;43.20;;;;;;6178701;28;82256;-60
2023/12/16 10:51:48;;;;;;;9.80;5.40;;;23.10;43.40;;;;;;6179358;28;80523;-60
2023/12/16 10:54:48;;;;;;;8.73;4.93;;;23.10;43.60;;;;;;6171550;28;83132;-60
2023/12/16 10:57:49;;;;;;;9.77;6.05;;;23.00;43.70;;;;;;6164755;28;87364;-60
2023/12/16 11:00:49;;;;;;;9.57;5.63;;;23.00;44.30;;;;;;6161408;28;80862;-59
2023/12/16 11:03:51;;;;;;;15.57;6.60;;;23.00;44.40;;;;;;6155280;28;82163;-59
2023/12/16 11:06:51;;;;;;;10.85;6.22;;;23.00;45.40;;;;;;6174187;28;81274;-64
2023/12/16 11:09:52;;;;;;;9.23;5.28;;;23.00;45.50;;;;;;6168088;28;82229;-59
2023/12/16 11:12:53;;;;;;;11.55;5.60;;;23.00;45.20;;;;;;6174613;28;80431;-60
2023/12/16 11:15:53;;;;;;;12.40;5.88;;;23.00;45.30;;;;;;6175431;28;80387;-60
2023/12/16 11:18:54;;;;;;;14.15;6.38;;;23.00;45.00;;;;;;6168965;28;80074;-60
2023/12/16 11:21:54;;;;;;;19.17;6.47;;;23.00;45.30;;;;;;6171501;28;81199;-61
2023/12/16 11:24:56;;;;;;;10.90;5.38;;;23.00;45.30;;;;;;6165414;28;80423;-58
2023/12/16 11:27:57;;;;;;;16.75;6.10;;;23.00;45.30;;;;;;6164498;28;81294;-60
2023/12/16 11:30:58;;;;;;;10.93;5.20;;;23.00;45.60;;;;;;6153909;28;80901;-60
2023/12/16 11:33:59;;;;;;;13.13;5.32;;;23.00;46.10;;;;;;6167084;28;80577;-57
2023/12/16 11:37:02;;;;;;;14.15;6.25;;;23.00;46.40;;;;;;6164695;28;81124;-61
2023/12/16 11:40:03;;;;;;;10.60;5.20;;;23.00;46.80;;;;;;6155187;28;83301;-60
2023/12/16 11:43:04;;;;;;;9.98;4.70;;;23.00;46.50;;;;;;6157338;28;80458;-58
2023/12/16 11:46:04;;;;;;;13.05;5.32;;;23.00;46.50;;;;;;6169313;28;80596;-59
2023/12/16 11:49:05;;;;;;;12.25;5.55;;;23.00;47.00;;;;;;6175438;28;81246;-59
2023/12/16 11:52:05;;;;;;;10.30;5.15;;;23.00;46.70;;;;;;6150518;28;88879;-59
2023/12/16 11:55:06;;;;;;;9.68;4.68;;;23.00;46.70;;;;;;6163615;28;81332;-56
2023/12/16 11:58:06;;;;;;;8.32;4.60;;;23.10;46.40;;;;;;6149369;28;80937;-53
2023/12/16 12:01:07;;;;;;;8.18;4.47;;;23.10;46.20;;;;;;6154287;28;80517;-56
2023/12/16 12:04:08;;;;;;;14.40;5.20;;;23.00;46.30;;;;;;6157043;28;81388;-56
2023/12/16 12:07:09;;;;;;;6.65;4.05;;;23.00;46.70;;;;;;6156929;28;82099;-57
2023/12/16 12:10:09;;;;;;;10.35;5.22;;;23.00;47.10;;;;;;6149723;28;81160;-56
2023/12/16 12:13:10;;;;;;;12.95;5.43;;;23.10;47.30;;;;;;6145479;28;81233;-67
2023/12/16 12:16:13;;;;;;;21.85;8.73;;;23.10;47.70;;;;;;6141504;28;81679;-69
2023/12/16 12:19:14;;;;;;;24.13;9.30;;;23.10;47.40;;;;;;6160625;28;81299;-68
2023/12/16 12:22:14;;;;;;;33.75;12.80;;;23.10;47.70;;;;;;6140653;28;81338;-66
2023/12/16 12:25:15;;;;;;;48.08;15.13;;;23.10;48.50;;;;;;6145487;28;83818;-69
2023/12/16 12:28:15;;;;;;;48.55;15.73;;;23.10;48.70;;;;;;6150794;28;83972;-67
2023/12/16 12:31:16;;;;;;;82.80;20.42;;;23.20;48.80;;;;;;6142274;28;85622;-69
2023/12/16 12:34:17;;;;;;;74.55;21.45;;;23.20;50.30;;;;;;6152581;28;87126;-72
2023/12/16 12:37:18;;;;;;;71.38;21.92;;;23.20;50.70;;;;;;6136982;28;83767;-65
2023/12/16 12:40:18;;;;;;;90.47;26.60;;;23.20;51.50;;;;;;6140276;28;84030;-68
2023/12/16 12:43:19;;;;;;;88.00;27.73;;;23.20;52.30;;;;;;6151320;28;85673;-66
2023/12/16 12:46:20;;;;;;;87.90;28.92;;;23.30;52.70;;;;;;6154569;28;83698;-65
2023/12/16 12:49:20;;;;;;;96.28;32.05;;;23.30;53.90;;;;;;6144243;28;83433;-58
2023/12/16 12:52:21;;;;;;;108.97;30.98;;;23.30;53.90;;;;;;6155408;28;83116;-58
2023/12/16 12:55:21;;;;;;;95.47;31.58;;;23.40;53.80;;;;;;6156220;28;83325;-58
2023/12/16 12:58:25;;;;;;;87.22;27.85;;;23.40;53.70;;;;;;6155909;28;84909;-58
2023/12/16 13:01:25;;;;;;;95.13;28.38;;;23.40;53.30;;;;;;6163592;28;83968;-58
2023/12/16 13:04:26;;;;;;;89.15;27.10;;;23.40;53.40;;;;;;6172411;28;85997;-58
2023/12/16 13:07:26;;;;;;;78.32;24.85;;;23.50;53.20;;;;;;6167071;28;83966;-58
2023/12/16 13:10:27;;;;;;;78.43;25.92;;;23.50;52.90;;;;;;6172231;28;89923;-58
2023/12/16 13:13:27;;;;;;;79.22;25.75;;;23.50;52.30;;;;;;6169919;28;83719;-57
2023/12/16 13:16:28;;;;;;;75.22;23.92;;;23.50;52.60;;;;;;6171571;28;83503;-56
2023/12/16 13:19:28;;;;;;;75.43;26.30;;;23.50;51.90;;;;;;6172900;28;83180;-58
2023/12/16 13:22:34;;;;;;;64.72;23.02;;;23.50;51.80;;;;;;6170468;28;84868;-58
2023/12/16 13:25:34;;;;;;;67.20;22.55;;;23.50;51.40;;;;;;6173772;28;86115;-64
2023/12/16 13:28:35;;;;;;;66.78;23.05;;;23.50;51.00;;;;;;6171037;28;83800;-67
2023/12/16 13:31:35;;;;;;;63.95;21.95;;;23.50;50.60;;;;;;6167031;28;83694;-65
2023/12/16 13:34:36;;;;;;;54.60;20.38;;;23.50;50.20;;;;;;6173094;28;83177;-65
2023/12/16 13:37:36;;;;;;;55.95;20.35;;;23.60;50.00;;;;;;6162691;28;86938;-69
2023/12/16 13:40:37;;;;;;;48.33;17.92;;;23.60;49.80;;;;;;6164592;28;84449;-65
2023/12/16 13:43:37;;;;;;;66.78;18.50;;;23.50;49.50;;;;;;6163227;28;84871;-66
2023/12/16 13:46:38;;;;;;;47.83;17.38;;;23.50;49.90;;;;;;6171188;28;83467;-62
2023/12/16 13:49:39;;;;;;;42.85;16.48;;;23.50;49.40;;;;;;6171104;28;83670;-65
2023/12/16 13:52:39;;;;;;;38.42;16.52;;;23.50;49.20;;;;;;6170369;28;84207;-64
2023/12/16 13:55:40;;;;;;;39.05;14.43;;;23.50;49.30;;;;;;6142529;28;84488;-66
2023/12/16 13:58:41;;;;;;;33.63;14.30;;;23.40;49.40;;;;;;6145869;28;83653;-65
2023/12/16 14:01:42;;;;;;;32.88;13.57;;;23.50;49.30;;;;;;6155360;28;83822;-66
2023/12/16 14:04:44;;;;;;;36.33;13.45;;;23.50;49.60;;;;;;6150295;28;83992;-59
2023/12/16 14:07:45;;;;;;;33.10;13.25;;;23.50;49.20;;;;;;6139231;28;83451;-60
2023/12/16 14:10:47;;;;;;;31.48;13.68;;;23.40;49.70;;;;;;6145932;28;83529;-60
2023/12/16 14:13:47;;;;;;;29.50;10.77;;;23.40;49.40;;;;;;6160504;28;83722;-60
2023/12/16 14:16:48;;;;;;;28.52;11.15;;;23.40;49.80;;;;;;6154786;28;83742;-60
2023/12/16 14:19:48;;;;;;;27.33;11.27;;;23.30;48.90;;;;;;6143824;28;83680;-60
2023/12/16 14:22:52;;;;;;;29.20;11.02;;;23.30;48.80;;;;;;6157479;28;84649;-65
2023/12/16 14:25:52;;;;;;;30.45;10.98;;;23.30;48.70;;;;;;6159774;28;83416;-63
2023/12/16 14:28:53;;;;;;;25.83;9.45;;;23.30;49.00;;;;;;6160893;28;85354;-64
2023/12/16 14:31:53;;;;;;;33.13;11.02;;;23.30;49.50;;;;;;6162200;28;83041;-66
2023/12/16 14:34:54;;;;;;;28.98;9.05;;;23.30;50.10;;;;;;6158708;28;84159;-65
2023/12/16 14:37:55;;;;;;;21.45;8.70;;;23.30;51.20;;;;;;6167556;28;84797;-67
2023/12/16 14:40:55;;;;;;;24.25;8.38;;;23.30;52.10;;;;;;6166228;28;81755;-60
2023/12/16 14:43:55;;;;;;;22.88;8.05;;;23.30;53.10;;;;;;6157308;28;80775;-62
2023/12/16 14:46:56;;;;;;;24.55;9.02;;;23.30;53.00;;;;;;6167612;28;82268;-63
2023/12/16 14:49:56;;;;;;;21.33;7.82;;;23.30;52.90;;;;;;6139107;28;82427;-59
2023/12/16 14:52:57;;;;;;;23.55;8.77;;;23.30;52.20;;;;;;6159721;28;82010;-59
2023/12/16 14:55:58;;;;;;;17.48;7.95;;;23.20;51.20;;;;;;6159520;28;82581;-59
2023/12/16 14:58:58;;;;;;;19.52;8.45;;;23.20;50.90;;;;;;6144949;28;80888;-63
2023/12/16 15:01:59;;;;;;;18.65;7.22;;;23.20;51.60;;;;;;6158726;28;82241;-60
2023/12/16 15:05:01;;;;;;;16.08;7.25;;;23.20;51.40;;;;;;6166464;28;83474;-61
2023/12/16 15:08:02;;;;;;;12.77;6.13;;;23.20;51.40;;;;;;6162241;28;80562;-61
2023/12/16 15:11:02;;;;;;;20.88;6.32;;;23.30;50.90;;;;;;6175709;28;83384;-60
2023/12/16 15:14:03;;;;;;;17.60;6.80;;;23.30;50.90;;;;;;6173652;28;80823;-58
2023/12/16 15:17:03;;;;;;;24.23;6.82;;;23.30;50.60;;;;;;6175953;28;82193;-62
2023/12/16 15:20:04;;;;;;;14.65;6.60;;;23.30;50.50;;;;;;6176837;28;80821;-61
2023/12/16 15:23:04;;;;;;;12.15;6.07;;;23.30;50.60;;;;;;6178203;28;81429;-60
2023/12/16 15:26:05;;;;;;;16.63;6.53;;;23.30;50.30;;;;;;6172189;28;83045;-59
2023/12/16 15:29:06;;;;;;;14.18;5.72;;;23.40;50.30;;;;;;6173915;28;82819;-58
2023/12/16 15:32:06;;;;;;;10.23;5.50;;;23.40;50.80;;;;;;6167011;28;82942;-60